sensor_id;sensor_type;location;lat;lon;timestamp;temperature;humidity
24618;DHT22;12762;51.730;5.356;2023-07-08T00:02:16;20.90;52.90
24618;DHT22;12762;51.730;5.356;2023-07-08T00:04:43;20.80;53.20
24618;DHT22;12762;51.730;5.356;2023-07-08T00:07:12;20.80;52.80
24618;DHT22;12762;51.730;5.356;2023-07-08T00:09:42;20.70;53.20
24618;DHT22;12762;51.730;5.356;2023-07-08T00:12:12;20.70;52.90
24618;DHT22;12762;51.730;5.356;2023-07-08T00:14:40;20.70;53.00
24618;DHT22;12762;51.730;5.356;2023-07-08T00:17:11;20.60;53.20
24618;DHT22;12762;51.730;5.356;2023-07-08T00:19:40;20.50;53.40
24618;DHT22;12762;51.730;5.356;2023-07-08T00:22:13;20.50;53.50
24618;DHT22;12762;51.730;5.356;2023-07-08T00:24:42;20.50;53.60
24618;DHT22;12762;51.730;5.356;2023-07-08T00:27:11;20.40;53.40
24618;DHT22;12762;51.730;5.356;2023-07-08T00:29:42;20.40;54.00
24618;DHT22;12762;51.730;5.356;2023-07-08T00:32:13;20.30;53.50
24618;DHT22;12762;51.730;5.356;2023-07-08T00:34:41;20.30;53.90
24618;DHT22;12762;51.730;5.356;2023-07-08T00:37:11;20.30;53.70
24618;DHT22;12762;51.730;5.356;2023-07-08T00:39:40;20.20;54.00
24618;DHT22;12762;51.730;5.356;2023-07-08T00:42:16;20.20;53.50
24618;DHT22;12762;51.730;5.356;2023-07-08T00:44:45;20.20;53.40
24618;DHT22;12762;51.730;5.356;2023-07-08T00:47:14;20.20;53.30
24618;DHT22;12762;51.730;5.356;2023-07-08T00:49:58;20.10;53.30
24618;DHT22;12762;51.730;5.356;2023-07-08T00:52:28;20.10;53.70
24618;DHT22;12762;51.730;5.356;2023-07-08T00:54:59;20.00;53.60
24618;DHT22;12762;51.730;5.356;2023-07-08T00:57:33;20.00;53.60
24618;DHT22;12762;51.730;5.356;2023-07-08T01:00:10;19.90;53.50
24618;DHT22;12762;51.730;5.356;2023-07-08T01:02:45;19.90;53.70
24618;DHT22;12762;51.730;5.356;2023-07-08T01:05:24;19.90;54.40
24618;DHT22;12762;51.730;5.356;2023-07-08T01:08:00;19.80;54.40
24618;DHT22;12762;51.730;5.356;2023-07-08T01:10:37;19.80;55.60
24618;DHT22;12762;51.730;5.356;2023-07-08T01:13:08;19.70;55.30
24618;DHT22;12762;51.730;5.356;2023-07-08T01:15:43;19.60;55.40
24618;DHT22;12762;51.730;5.356;2023-07-08T01:18:18;19.60;55.20
24618;DHT22;12762;51.730;5.356;2023-07-08T01:20:48;19.60;55.20
24618;DHT22;12762;51.730;5.356;2023-07-08T01:23:17;19.50;54.70
24618;DHT22;12762;51.730;5.356;2023-07-08T01:25:45;19.50;54.80
24618;DHT22;12762;51.730;5.356;2023-07-08T01:28:14;19.50;54.60
24618;DHT22;12762;51.730;5.356;2023-07-08T01:30:43;19.50;54.30
24618;DHT22;12762;51.730;5.356;2023-07-08T01:33:17;19.40;54.70
24618;DHT22;12762;51.730;5.356;2023-07-08T01:35:46;19.40;54.90
24618;DHT22;12762;51.730;5.356;2023-07-08T01:38:24;19.30;54.90
24618;DHT22;12762;51.730;5.356;2023-07-08T01:40:55;19.30;55.00
24618;DHT22;12762;51.730;5.356;2023-07-08T01:43:24;19.30;54.80
24618;DHT22;12762;51.730;5.356;2023-07-08T01:45:52;19.30;54.60
24618;DHT22;12762;51.730;5.356;2023-07-08T01:48:22;19.30;54.50
24618;DHT22;12762;51.730;5.356;2023-07-08T01:50:56;19.20;54.60
24618;DHT22;12762;51.730;5.356;2023-07-08T01:53:40;19.20;54.30
24618;DHT22;12762;51.730;5.356;2023-07-08T01:56:10;19.20;53.90
24618;DHT22;12762;51.730;5.356;2023-07-08T01:58:38;19.10;54.10
24618;DHT22;12762;51.730;5.356;2023-07-08T02:01:06;19.10;54.30
24618;DHT22;12762;51.730;5.356;2023-07-08T02:03:35;19.10;54.60
24618;DHT22;12762;51.730;5.356;2023-07-08T02:06:04;19.10;54.30
24618;DHT22;12762;51.730;5.356;2023-07-08T02:08:32;19.00;54.60
24618;DHT22;12762;51.730;5.356;2023-07-08T02:11:00;19.00;55.10
24618;DHT22;12762;51.730;5.356;2023-07-08T02:13:28;19.00;56.00
24618;DHT22;12762;51.730;5.356;2023-07-08T02:15:55;19.00;56.30
24618;DHT22;12762;51.730;5.356;2023-07-08T02:18:23;19.00;56.00
24618;DHT22;12762;51.730;5.356;2023-07-08T02:20:56;18.90;56.00
24618;DHT22;12762;51.730;5.356;2023-07-08T02:23:27;18.90;56.20
24618;DHT22;12762;51.730;5.356;2023-07-08T02:26:01;18.90;56.30
24618;DHT22;12762;51.730;5.356;2023-07-08T02:28:29;18.80;56.50
24618;DHT22;12762;51.730;5.356;2023-07-08T02:31:02;18.80;56.80
24618;DHT22;12762;51.730;5.356;2023-07-08T02:33:29;18.80;57.20
24618;DHT22;12762;51.730;5.356;2023-07-08T02:36:00;18.80;57.10
24618;DHT22;12762;51.730;5.356;2023-07-08T02:38:28;18.80;56.40
24618;DHT22;12762;51.730;5.356;2023-07-08T02:40:56;18.70;56.70
24618;DHT22;12762;51.730;5.356;2023-07-08T02:43:25;18.70;56.80
24618;DHT22;12762;51.730;5.356;2023-07-08T02:45:53;18.60;56.80
24618;DHT22;12762;51.730;5.356;2023-07-08T02:48:20;18.60;56.50
24618;DHT22;12762;51.730;5.356;2023-07-08T02:50:48;18.60;56.40
24618;DHT22;12762;51.730;5.356;2023-07-08T02:53:15;18.60;56.90
24618;DHT22;12762;51.730;5.356;2023-07-08T02:55:43;18.50;56.90
24618;DHT22;12762;51.730;5.356;2023-07-08T02:58:10;18.50;57.40
24618;DHT22;12762;51.730;5.356;2023-07-08T03:00:40;18.50;57.00
24618;DHT22;12762;51.730;5.356;2023-07-08T03:03:08;18.50;57.30
24618;DHT22;12762;51.730;5.356;2023-07-08T03:05:35;18.50;57.30
24618;DHT22;12762;51.730;5.356;2023-07-08T03:08:03;18.40;57.40
24618;DHT22;12762;51.730;5.356;2023-07-08T03:10:30;18.40;58.20
24618;DHT22;12762;51.730;5.356;2023-07-08T03:13:01;18.40;57.50
24618;DHT22;12762;51.730;5.356;2023-07-08T03:15:29;18.30;57.30
24618;DHT22;12762;51.730;5.356;2023-07-08T03:17:57;18.30;57.20
24618;DHT22;12762;51.730;5.356;2023-07-08T03:20:24;18.30;56.90
24618;DHT22;12762;51.730;5.356;2023-07-08T03:22:52;18.30;56.60
24618;DHT22;12762;51.730;5.356;2023-07-08T03:25:19;18.20;56.60
24618;DHT22;12762;51.730;5.356;2023-07-08T03:27:46;18.20;56.30
24618;DHT22;12762;51.730;5.356;2023-07-08T03:30:14;18.20;56.20
24618;DHT22;12762;51.730;5.356;2023-07-08T03:32:42;18.20;56.50
24618;DHT22;12762;51.730;5.356;2023-07-08T03:35:09;18.20;57.00
24618;DHT22;12762;51.730;5.356;2023-07-08T03:37:36;18.20;57.60
24618;DHT22;12762;51.730;5.356;2023-07-08T03:40:08;18.20;57.40
24618;DHT22;12762;51.730;5.356;2023-07-08T03:42:37;18.10;57.70
24618;DHT22;12762;51.730;5.356;2023-07-08T03:45:04;18.10;58.00
24618;DHT22;12762;51.730;5.356;2023-07-08T03:47:32;18.10;58.00
24618;DHT22;12762;51.730;5.356;2023-07-08T03:49:59;18.10;58.10
24618;DHT22;12762;51.730;5.356;2023-07-08T03:52:27;18.10;58.20
24618;DHT22;12762;51.730;5.356;2023-07-08T03:54:54;18.10;58.20
24618;DHT22;12762;51.730;5.356;2023-07-08T03:57:28;18.10;58.60
24618;DHT22;12762;51.730;5.356;2023-07-08T03:59:58;18.00;58.50
24618;DHT22;12762;51.730;5.356;2023-07-08T04:02:26;18.00;58.60
24618;DHT22;12762;51.730;5.356;2023-07-08T04:04:53;18.00;58.40
24618;DHT22;12762;51.730;5.356;2023-07-08T04:07:21;18.00;58.30
24618;DHT22;12762;51.730;5.356;2023-07-08T04:09:49;18.00;58.00
24618;DHT22;12762;51.730;5.356;2023-07-08T04:12:18;18.00;57.90
24618;DHT22;12762;51.730;5.356;2023-07-08T04:14:45;18.00;58.00
24618;DHT22;12762;51.730;5.356;2023-07-08T04:17:17;18.00;57.90
24618;DHT22;12762;51.730;5.356;2023-07-08T04:19:45;18.00;57.70
24618;DHT22;12762;51.730;5.356;2023-07-08T04:22:13;18.00;57.90
24618;DHT22;12762;51.730;5.356;2023-07-08T04:24:40;18.00;57.50
24618;DHT22;12762;51.730;5.356;2023-07-08T04:27:16;18.00;57.90
24618;DHT22;12762;51.730;5.356;2023-07-08T04:29:44;18.10;58.80
24618;DHT22;12762;51.730;5.356;2023-07-08T04:32:11;18.10;58.30
24618;DHT22;12762;51.730;5.356;2023-07-08T04:34:39;18.10;58.50
24618;DHT22;12762;51.730;5.356;2023-07-08T04:37:09;18.10;58.80
24618;DHT22;12762;51.730;5.356;2023-07-08T04:39:38;18.10;58.60
24618;DHT22;12762;51.730;5.356;2023-07-08T04:42:05;18.10;58.80
24618;DHT22;12762;51.730;5.356;2023-07-08T04:44:33;18.10;59.00
24618;DHT22;12762;51.730;5.356;2023-07-08T04:47:02;18.10;59.40
24618;DHT22;12762;51.730;5.356;2023-07-08T04:49:30;18.10;59.50
24618;DHT22;12762;51.730;5.356;2023-07-08T04:52:01;18.20;59.80
24618;DHT22;12762;51.730;5.356;2023-07-08T04:54:29;18.20;60.00
24618;DHT22;12762;51.730;5.356;2023-07-08T04:56:56;18.20;60.10
24618;DHT22;12762;51.730;5.356;2023-07-08T04:59:25;18.20;59.80
24618;DHT22;12762;51.730;5.356;2023-07-08T05:01:53;18.20;60.00
24618;DHT22;12762;51.730;5.356;2023-07-08T05:04:22;18.30;60.20
24618;DHT22;12762;51.730;5.356;2023-07-08T05:06:50;18.30;60.60
24618;DHT22;12762;51.730;5.356;2023-07-08T05:09:18;18.40;60.70
24618;DHT22;12762;51.730;5.356;2023-07-08T05:11:45;18.40;60.30
24618;DHT22;12762;51.730;5.356;2023-07-08T05:14:13;18.40;60.80
24618;DHT22;12762;51.730;5.356;2023-07-08T05:16:41;18.40;61.00
24618;DHT22;12762;51.730;5.356;2023-07-08T05:19:12;18.50;61.00
24618;DHT22;12762;51.730;5.356;2023-07-08T05:21:42;18.50;61.00
24618;DHT22;12762;51.730;5.356;2023-07-08T05:24:12;18.50;61.30
24618;DHT22;12762;51.730;5.356;2023-07-08T05:26:39;18.60;61.20
24618;DHT22;12762;51.730;5.356;2023-07-08T05:29:07;18.60;61.30
24618;DHT22;12762;51.730;5.356;2023-07-08T05:31:34;18.70;61.60
24618;DHT22;12762;51.730;5.356;2023-07-08T05:34:05;18.70;61.70
24618;DHT22;12762;51.730;5.356;2023-07-08T05:36:33;18.80;61.90
24618;DHT22;12762;51.730;5.356;2023-07-08T05:39:01;18.80;61.90
24618;DHT22;12762;51.730;5.356;2023-07-08T05:41:29;18.90;62.20
24618;DHT22;12762;51.730;5.356;2023-07-08T05:43:56;18.90;62.20
24618;DHT22;12762;51.730;5.356;2023-07-08T05:46:24;19.00;62.50
24618;DHT22;12762;51.730;5.356;2023-07-08T05:48:51;19.00;62.50
24618;DHT22;12762;51.730;5.356;2023-07-08T05:51:19;19.10;62.60
24618;DHT22;12762;51.730;5.356;2023-07-08T05:53:46;19.20;62.80
24618;DHT22;12762;51.730;5.356;2023-07-08T05:56:14;19.20;62.90
24618;DHT22;12762;51.730;5.356;2023-07-08T05:58:41;19.30;63.10
24618;DHT22;12762;51.730;5.356;2023-07-08T06:01:10;19.40;63.20
24618;DHT22;12762;51.730;5.356;2023-07-08T06:03:38;19.50;63.30
24618;DHT22;12762;51.730;5.356;2023-07-08T06:06:05;19.50;63.30
24618;DHT22;12762;51.730;5.356;2023-07-08T06:08:34;19.60;63.30
24618;DHT22;12762;51.730;5.356;2023-07-08T06:11:02;19.70;63.40
24618;DHT22;12762;51.730;5.356;2023-07-08T06:13:36;19.80;63.40
24618;DHT22;12762;51.730;5.356;2023-07-08T06:16:04;19.90;63.30
24618;DHT22;12762;51.730;5.356;2023-07-08T06:18:31;20.00;63.20
24618;DHT22;12762;51.730;5.356;2023-07-08T06:21:31;20.10;63.20
24618;DHT22;12762;51.730;5.356;2023-07-08T06:23:59;20.20;63.00
24618;DHT22;12762;51.730;5.356;2023-07-08T06:26:29;20.30;62.90
24618;DHT22;12762;51.730;5.356;2023-07-08T06:28:58;20.40;62.70
24618;DHT22;12762;51.730;5.356;2023-07-08T06:31:25;20.50;62.70
24618;DHT22;12762;51.730;5.356;2023-07-08T06:33:53;20.60;62.70
24618;DHT22;12762;51.730;5.356;2023-07-08T06:36:21;20.70;62.70
24618;DHT22;12762;51.730;5.356;2023-07-08T06:38:50;20.80;62.60
24618;DHT22;12762;51.730;5.356;2023-07-08T06:41:18;20.90;62.50
24618;DHT22;12762;51.730;5.356;2023-07-08T06:43:45;21.00;62.30
24618;DHT22;12762;51.730;5.356;2023-07-08T06:46:13;21.10;62.30
24618;DHT22;12762;51.730;5.356;2023-07-08T06:48:40;21.20;62.00
24618;DHT22;12762;51.730;5.356;2023-07-08T06:51:08;21.40;62.40
24618;DHT22;12762;51.730;5.356;2023-07-08T06:53:38;22.00;62.70
24618;DHT22;12762;51.730;5.356;2023-07-08T06:56:06;23.00;62.40
24618;DHT22;12762;51.730;5.356;2023-07-08T06:58:33;24.10;61.30
24618;DHT22;12762;51.730;5.356;2023-07-08T07:01:01;25.20;59.50
24618;DHT22;12762;51.730;5.356;2023-07-08T07:03:29;26.20;57.70
24618;DHT22;12762;51.730;5.356;2023-07-08T07:05:57;27.10;56.10
24618;DHT22;12762;51.730;5.356;2023-07-08T07:08:28;27.90;55.00
24618;DHT22;12762;51.730;5.356;2023-07-08T07:10:57;28.70;53.80
24618;DHT22;12762;51.730;5.356;2023-07-08T07:13:25;29.40;52.60
24618;DHT22;12762;51.730;5.356;2023-07-08T07:15:52;30.00;51.40
24618;DHT22;12762;51.730;5.356;2023-07-08T07:18:20;30.50;50.30
24618;DHT22;12762;51.730;5.356;2023-07-08T07:20:53;31.10;49.90
24618;DHT22;12762;51.730;5.356;2023-07-08T07:23:21;31.50;49.70
24618;DHT22;12762;51.730;5.356;2023-07-08T07:25:52;31.90;48.60
24618;DHT22;12762;51.730;5.356;2023-07-08T07:28:19;32.40;48.60
24618;DHT22;12762;51.730;5.356;2023-07-08T07:30:47;32.70;48.00
24618;DHT22;12762;51.730;5.356;2023-07-08T07:33:14;33.10;46.90
24618;DHT22;12762;51.730;5.356;2023-07-08T07:35:45;33.50;46.50
24618;DHT22;12762;51.730;5.356;2023-07-08T07:38:14;33.70;45.30
24618;DHT22;12762;51.730;5.356;2023-07-08T07:40:43;34.00;44.40
24618;DHT22;12762;51.730;5.356;2023-07-08T07:43:12;34.20;43.90
24618;DHT22;12762;51.730;5.356;2023-07-08T07:45:40;34.40;43.60
24618;DHT22;12762;51.730;5.356;2023-07-08T07:48:08;34.50;43.60
24618;DHT22;12762;51.730;5.356;2023-07-08T07:50:36;34.60;44.10
24618;DHT22;12762;51.730;5.356;2023-07-08T07:53:03;34.80;43.30
24618;DHT22;12762;51.730;5.356;2023-07-08T07:55:34;34.90;42.60
24618;DHT22;12762;51.730;5.356;2023-07-08T07:58:01;34.90;42.40
24618;DHT22;12762;51.730;5.356;2023-07-08T08:00:30;35.00;43.30
24618;DHT22;12762;51.730;5.356;2023-07-08T08:02:57;35.10;42.50
24618;DHT22;12762;51.730;5.356;2023-07-08T08:05:25;35.10;42.00
24618;DHT22;12762;51.730;5.356;2023-07-08T08:07:53;35.10;42.00
24618;DHT22;12762;51.730;5.356;2023-07-08T08:10:20;35.20;42.10
24618;DHT22;12762;51.730;5.356;2023-07-08T08:12:48;35.20;42.40
24618;DHT22;12762;51.730;5.356;2023-07-08T08:15:22;35.30;41.90
24618;DHT22;12762;51.730;5.356;2023-07-08T08:17:50;35.30;41.80
24618;DHT22;12762;51.730;5.356;2023-07-08T08:20:21;35.30;42.50
24618;DHT22;12762;51.730;5.356;2023-07-08T08:22:49;35.40;42.10
24618;DHT22;12762;51.730;5.356;2023-07-08T08:25:19;35.40;41.80
24618;DHT22;12762;51.730;5.356;2023-07-08T08:27:47;35.50;42.00
24618;DHT22;12762;51.730;5.356;2023-07-08T08:30:14;35.60;41.70
24618;DHT22;12762;51.730;5.356;2023-07-08T08:32:42;35.70;42.00
24618;DHT22;12762;51.730;5.356;2023-07-08T08:35:10;35.80;41.80
24618;DHT22;12762;51.730;5.356;2023-07-08T08:37:37;35.80;41.30
24618;DHT22;12762;51.730;5.356;2023-07-08T08:40:06;35.90;40.60
24618;DHT22;12762;51.730;5.356;2023-07-08T08:43:08;36.00;41.10
24618;DHT22;12762;51.730;5.356;2023-07-08T08:45:59;36.10;41.00
24618;DHT22;12762;51.730;5.356;2023-07-08T08:48:27;36.20;41.30
24618;DHT22;12762;51.730;5.356;2023-07-08T08:51:00;36.30;40.60
24618;DHT22;12762;51.730;5.356;2023-07-08T08:53:35;36.40;40.50
24618;DHT22;12762;51.730;5.356;2023-07-08T08:58:59;36.40;39.50
24618;DHT22;12762;51.730;5.356;2023-07-08T09:01:29;36.40;38.50
24618;DHT22;12762;51.730;5.356;2023-07-08T09:06:30;35.90;38.10
24618;DHT22;12762;51.730;5.356;2023-07-08T09:09:05;35.50;38.10
24618;DHT22;12762;51.730;5.356;2023-07-08T09:11:54;35.10;39.00
24618;DHT22;12762;51.730;5.356;2023-07-08T09:14:27;35.10;40.40
24618;DHT22;12762;51.730;5.356;2023-07-08T09:17:26;35.30;40.20
24618;DHT22;12762;51.730;5.356;2023-07-08T09:20:20;35.60;40.80
24618;DHT22;12762;51.730;5.356;2023-07-08T09:22:56;35.70;39.60
24618;DHT22;12762;51.730;5.356;2023-07-08T09:25:45;35.50;39.80
24618;DHT22;12762;51.730;5.356;2023-07-08T09:28:14;35.60;41.10
24618;DHT22;12762;51.730;5.356;2023-07-08T09:30:47;35.70;41.00
24618;DHT22;12762;51.730;5.356;2023-07-08T09:33:15;36.00;39.90
24618;DHT22;12762;51.730;5.356;2023-07-08T09:35:47;36.20;40.30
24618;DHT22;12762;51.730;5.356;2023-07-08T09:38:18;36.50;39.00
24618;DHT22;12762;51.730;5.356;2023-07-08T09:40:52;36.60;39.10
24618;DHT22;12762;51.730;5.356;2023-07-08T09:43:37;36.70;39.20
24618;DHT22;12762;51.730;5.356;2023-07-08T09:46:04;36.90;39.40
24618;DHT22;12762;51.730;5.356;2023-07-08T09:48:36;37.10;39.40
24618;DHT22;12762;51.730;5.356;2023-07-08T09:51:05;37.20;39.20
24618;DHT22;12762;51.730;5.356;2023-07-08T09:53:35;37.40;38.90
24618;DHT22;12762;51.730;5.356;2023-07-08T09:56:04;37.50;39.40
24618;DHT22;12762;51.730;5.356;2023-07-08T09:58:36;37.70;39.60
24618;DHT22;12762;51.730;5.356;2023-07-08T10:01:25;37.90;39.20
24618;DHT22;12762;51.730;5.356;2023-07-08T10:03:58;38.10;39.20
24618;DHT22;12762;51.730;5.356;2023-07-08T10:06:31;38.20;38.20
24618;DHT22;12762;51.730;5.356;2023-07-08T10:09:13;38.40;39.00
24618;DHT22;12762;51.730;5.356;2023-07-08T10:11:57;38.50;37.70
24618;DHT22;12762;51.730;5.356;2023-07-08T10:14:37;38.70;37.70
24618;DHT22;12762;51.730;5.356;2023-07-08T10:17:11;38.80;37.80
24618;DHT22;12762;51.730;5.356;2023-07-08T10:19:41;39.00;37.80
24618;DHT22;12762;51.730;5.356;2023-07-08T10:25:56;39.10;35.90
24618;DHT22;12762;51.730;5.356;2023-07-08T10:28:49;39.10;36.10
24618;DHT22;12762;51.730;5.356;2023-07-08T10:31:31;39.20;36.70
24618;DHT22;12762;51.730;5.356;2023-07-08T10:37:07;39.40;37.10
24618;DHT22;12762;51.730;5.356;2023-07-08T10:39:42;39.60;35.00
24618;DHT22;12762;51.730;5.356;2023-07-08T10:45:08;39.60;35.00
24618;DHT22;12762;51.730;5.356;2023-07-08T10:56:48;40.00;34.80
24618;DHT22;12762;51.730;5.356;2023-07-08T10:59:18;40.10;35.10
24618;DHT22;12762;51.730;5.356;2023-07-08T11:02:13;40.30;34.30
24618;DHT22;12762;51.730;5.356;2023-07-08T11:10:20;40.60;33.00
24618;DHT22;12762;51.730;5.356;2023-07-08T11:13:11;40.70;32.10
24618;DHT22;12762;51.730;5.356;2023-07-08T11:21:27;40.90;31.30
24618;DHT22;12762;51.730;5.356;2023-07-08T11:24:11;41.00;31.30
24618;DHT22;12762;51.730;5.356;2023-07-08T11:27:00;41.20;30.70
24618;DHT22;12762;51.730;5.356;2023-07-08T11:29:39;41.30;30.30
24618;DHT22;12762;51.730;5.356;2023-07-08T11:32:11;41.50;30.20
24618;DHT22;12762;51.730;5.356;2023-07-08T11:34:41;41.50;29.10
24618;DHT22;12762;51.730;5.356;2023-07-08T11:37:11;41.60;28.90
24618;DHT22;12762;51.730;5.356;2023-07-08T11:39:46;41.50;28.70
24618;DHT22;12762;51.730;5.356;2023-07-08T11:42:21;41.50;28.40
24618;DHT22;12762;51.730;5.356;2023-07-08T11:44:55;41.60;29.40
24618;DHT22;12762;51.730;5.356;2023-07-08T11:47:38;41.60;28.90
24618;DHT22;12762;51.730;5.356;2023-07-08T11:50:19;41.70;29.40
24618;DHT22;12762;51.730;5.356;2023-07-08T11:52:59;41.80;28.80
24618;DHT22;12762;51.730;5.356;2023-07-08T11:55:44;41.80;28.60
24618;DHT22;12762;51.730;5.356;2023-07-08T11:58:21;41.90;28.90
24618;DHT22;12762;51.730;5.356;2023-07-08T12:03:48;42.00;29.20
24618;DHT22;12762;51.730;5.356;2023-07-08T12:08:59;41.50;28.30
24618;DHT22;12762;51.730;5.356;2023-07-08T12:11:44;41.30;28.10
24618;DHT22;12762;51.730;5.356;2023-07-08T12:14:13;41.30;29.40
24618;DHT22;12762;51.730;5.356;2023-07-08T12:16:44;41.50;29.20
24618;DHT22;12762;51.730;5.356;2023-07-08T12:19:16;41.60;29.20
24618;DHT22;12762;51.730;5.356;2023-07-08T12:21:45;41.70;29.10
24618;DHT22;12762;51.730;5.356;2023-07-08T12:24:17;41.90;29.00
24618;DHT22;12762;51.730;5.356;2023-07-08T12:26:45;41.90;28.40
24618;DHT22;12762;51.730;5.356;2023-07-08T12:29:12;41.90;28.00
24618;DHT22;12762;51.730;5.356;2023-07-08T12:31:45;41.90;27.80
24618;DHT22;12762;51.730;5.356;2023-07-08T12:34:14;42.00;28.10
24618;DHT22;12762;51.730;5.356;2023-07-08T12:36:45;42.10;27.50
24618;DHT22;12762;51.730;5.356;2023-07-08T12:39:15;42.10;27.10
24618;DHT22;12762;51.730;5.356;2023-07-08T12:41:45;42.00;26.40
24618;DHT22;12762;51.730;5.356;2023-07-08T12:44:21;41.80;26.30
24618;DHT22;12762;51.730;5.356;2023-07-08T12:46:52;41.80;27.20
24618;DHT22;12762;51.730;5.356;2023-07-08T12:49:20;41.80;26.30
24618;DHT22;12762;51.730;5.356;2023-07-08T12:51:49;41.60;26.40
24618;DHT22;12762;51.730;5.356;2023-07-08T12:54:18;41.60;26.60
24618;DHT22;12762;51.730;5.356;2023-07-08T12:56:47;41.60;27.30
24618;DHT22;12762;51.730;5.356;2023-07-08T12:59:21;41.80;27.80
24618;DHT22;12762;51.730;5.356;2023-07-08T13:01:50;41.90;26.70
24618;DHT22;12762;51.730;5.356;2023-07-08T13:04:19;42.10;27.00
24618;DHT22;12762;51.730;5.356;2023-07-08T13:06:48;42.20;27.80
24618;DHT22;12762;51.730;5.356;2023-07-08T13:09:31;42.30;27.00
24618;DHT22;12762;51.730;5.356;2023-07-08T13:12:04;42.40;26.00
24618;DHT22;12762;51.730;5.356;2023-07-08T13:14:33;42.40;25.00
24618;DHT22;12762;51.730;5.356;2023-07-08T13:17:02;42.10;25.10
24618;DHT22;12762;51.730;5.356;2023-07-08T13:19:30;41.80;25.30
24618;DHT22;12762;51.730;5.356;2023-07-08T13:21:57;41.60;25.50
24618;DHT22;12762;51.730;5.356;2023-07-08T13:24:30;41.50;24.80
24618;DHT22;12762;51.730;5.356;2023-07-08T13:26:59;41.20;25.50
24618;DHT22;12762;51.730;5.356;2023-07-08T13:29:26;41.10;25.50
24618;DHT22;12762;51.730;5.356;2023-07-08T13:32:05;41.00;26.20
24618;DHT22;12762;51.730;5.356;2023-07-08T13:34:37;41.10;27.10
24618;DHT22;12762;51.730;5.356;2023-07-08T13:37:11;41.20;26.50
24618;DHT22;12762;51.730;5.356;2023-07-08T13:39:46;41.40;26.90
24618;DHT22;12762;51.730;5.356;2023-07-08T13:42:14;41.60;26.60
24618;DHT22;12762;51.730;5.356;2023-07-08T13:44:43;41.70;26.20
24618;DHT22;12762;51.730;5.356;2023-07-08T13:47:25;41.50;25.70
24618;DHT22;12762;51.730;5.356;2023-07-08T13:50:16;41.20;26.10
24618;DHT22;12762;51.730;5.356;2023-07-08T13:52:54;40.90;26.10
24618;DHT22;12762;51.730;5.356;2023-07-08T13:55:30;40.60;26.10
24618;DHT22;12762;51.730;5.356;2023-07-08T13:58:00;40.60;26.70
24618;DHT22;12762;51.730;5.356;2023-07-08T14:00:31;40.70;27.00
24618;DHT22;12762;51.730;5.356;2023-07-08T14:02:59;40.70;26.90
24618;DHT22;12762;51.730;5.356;2023-07-08T14:05:27;40.70;27.00
24618;DHT22;12762;51.730;5.356;2023-07-08T14:07:56;40.60;27.30
24618;DHT22;12762;51.730;5.356;2023-07-08T14:10:24;40.60;27.60
24618;DHT22;12762;51.730;5.356;2023-07-08T14:12:51;40.70;27.50
24618;DHT22;12762;51.730;5.356;2023-07-08T14:15:22;40.60;26.70
24618;DHT22;12762;51.730;5.356;2023-07-08T14:17:50;40.40;26.80
24618;DHT22;12762;51.730;5.356;2023-07-08T14:20:18;40.40;27.00
24618;DHT22;12762;51.730;5.356;2023-07-08T14:22:46;40.40;27.30
24618;DHT22;12762;51.730;5.356;2023-07-08T14:25:15;40.40;26.80
24618;DHT22;12762;51.730;5.356;2023-07-08T14:27:43;40.30;26.60
24618;DHT22;12762;51.730;5.356;2023-07-08T14:30:11;40.30;26.90
24618;DHT22;12762;51.730;5.356;2023-07-08T14:32:42;40.20;27.80
24618;DHT22;12762;51.730;5.356;2023-07-08T14:37:38;40.40;27.50
24618;DHT22;12762;51.730;5.356;2023-07-08T14:45:48;40.60;27.00
24618;DHT22;12762;51.730;5.356;2023-07-08T14:48:16;40.30;26.70
24618;DHT22;12762;51.730;5.356;2023-07-08T14:50:44;40.20;27.10
24618;DHT22;12762;51.730;5.356;2023-07-08T14:53:13;40.00;26.90
24618;DHT22;12762;51.730;5.356;2023-07-08T14:55:43;39.90;27.20
24618;DHT22;12762;51.730;5.356;2023-07-08T14:58:29;39.70;26.50
24618;DHT22;12762;51.730;5.356;2023-07-08T15:01:00;39.40;27.00
24618;DHT22;12762;51.730;5.356;2023-07-08T15:03:33;39.30;26.90
24618;DHT22;12762;51.730;5.356;2023-07-08T15:06:01;39.20;27.30
24618;DHT22;12762;51.730;5.356;2023-07-08T15:08:29;39.20;27.80
24618;DHT22;12762;51.730;5.356;2023-07-08T15:10:58;39.20;27.50
24618;DHT22;12762;51.730;5.356;2023-07-08T15:13:29;39.20;27.70
24618;DHT22;12762;51.730;5.356;2023-07-08T15:15:57;39.20;28.00
24618;DHT22;12762;51.730;5.356;2023-07-08T15:18:25;39.10;27.40
24618;DHT22;12762;51.730;5.356;2023-07-08T15:20:53;38.70;27.40
24618;DHT22;12762;51.730;5.356;2023-07-08T15:23:21;38.40;27.40
24618;DHT22;12762;51.730;5.356;2023-07-08T15:25:49;38.20;28.30
24618;DHT22;12762;51.730;5.356;2023-07-08T15:28:37;38.10;28.40
24618;DHT22;12762;51.730;5.356;2023-07-08T15:31:10;38.10;28.80
24618;DHT22;12762;51.730;5.356;2023-07-08T15:33:38;38.00;28.80
24618;DHT22;12762;51.730;5.356;2023-07-08T15:36:07;38.00;29.00
24618;DHT22;12762;51.730;5.356;2023-07-08T15:38:39;38.00;29.20
24618;DHT22;12762;51.730;5.356;2023-07-08T15:43:41;37.90;28.50
24618;DHT22;12762;51.730;5.356;2023-07-08T15:46:09;37.70;28.50
24618;DHT22;12762;51.730;5.356;2023-07-08T15:48:37;37.40;28.60
24618;DHT22;12762;51.730;5.356;2023-07-08T15:51:05;37.20;29.10
24618;DHT22;12762;51.730;5.356;2023-07-08T15:53:32;37.10;29.40
24618;DHT22;12762;51.730;5.356;2023-07-08T15:56:00;36.90;29.50
24618;DHT22;12762;51.730;5.356;2023-07-08T15:58:33;36.80;29.60
24618;DHT22;12762;51.730;5.356;2023-07-08T16:01:02;36.70;29.90
24618;DHT22;12762;51.730;5.356;2023-07-08T16:03:33;36.60;29.80
24618;DHT22;12762;51.730;5.356;2023-07-08T16:06:05;36.50;29.80
24618;DHT22;12762;51.730;5.356;2023-07-08T16:08:33;36.50;30.30
24618;DHT22;12762;51.730;5.356;2023-07-08T16:11:03;36.30;30.40
24618;DHT22;12762;51.730;5.356;2023-07-08T16:13:36;36.30;30.50
24618;DHT22;12762;51.730;5.356;2023-07-08T16:16:05;36.20;30.70
24618;DHT22;12762;51.730;5.356;2023-07-08T16:18:35;36.20;30.90
24618;DHT22;12762;51.730;5.356;2023-07-08T16:21:04;36.10;31.00
24618;DHT22;12762;51.730;5.356;2023-07-08T16:23:32;36.00;30.90
24618;DHT22;12762;51.730;5.356;2023-07-08T16:26:02;36.00;31.10
24618;DHT22;12762;51.730;5.356;2023-07-08T16:28:59;35.90;31.20
24618;DHT22;12762;51.730;5.356;2023-07-08T16:31:27;35.90;31.50
24618;DHT22;12762;51.730;5.356;2023-07-08T16:33:55;35.80;31.30
24618;DHT22;12762;51.730;5.356;2023-07-08T16:36:27;35.70;31.40
24618;DHT22;12762;51.730;5.356;2023-07-08T16:38:55;35.60;31.20
24618;DHT22;12762;51.730;5.356;2023-07-08T16:41:26;35.60;31.20
24618;DHT22;12762;51.730;5.356;2023-07-08T16:43:54;35.60;31.30
24618;DHT22;12762;51.730;5.356;2023-07-08T16:46:24;35.60;31.10